Westgard — PDBQ — position and weather

sailwx.info

Track history (hours):
 
Tides and Currents Weather Stations Pressure Air Temp Water Temp Dewpoint Dewpoint Depression Visibility Wind Speed Wind Dir Waves Ship Positions

Westgard

Last reported at 2018-Feb-21 05:30 UTC. Time now 2018-Feb-21 05:55 UTC.
Position N 59°55' E 028°37'.

Length 89 m; draft 3.8 m.

Type: Ship. MMSI: 246457000.

Date/timePositionNaut miles runAvg speedWind from/ knotsBaromVisibWave heightAir tempDewpointWater temp
2018-Feb-21 05:30N 59°55' E 028°37'0 0.0
2018-Feb-21 05:00N 59°55' E 028°37'0 0.0
2018-Feb-21 04:30N 59°55' E 028°37'0 0.0
2018-Feb-21 04:00N 59°55' E 028°37'0 0.0
2018-Feb-21 03:30N 59°55' E 028°37'0 0.0
2018-Feb-21 03:00N 59°55' E 028°37'0 0.0
2018-Feb-21 02:30N 59°55' E 028°37'0 0.0
2018-Feb-21 02:00N 59°55' E 028°37'0 0.0
2018-Feb-21 01:30N 59°55' E 028°37'0 0.0
2018-Feb-21 01:00N 59°55' E 028°37'0 0.0
2018-Feb-21 00:30N 59°55' E 028°37'0 0.0
2018-Feb-21 00:00N 59°55' E 028°37'0 0.0
2018-Feb-20 23:30N 59°55' E 028°37'0 0.0
2018-Feb-20 23:00N 59°55' E 028°37'0 0.0
2018-Feb-20 22:30N 59°55' E 028°37'0 0.0
2018-Feb-20 22:00N 59°55' E 028°37'0 0.0
2018-Feb-20 21:30N 59°55' E 028°37'0 0.0
2018-Feb-20 21:00N 59°55' E 028°37'0 0.0
2018-Feb-20 20:30N 59°55' E 028°37'0 0.0
2018-Feb-20 20:00N 59°55' E 028°37'0 0.0
2018-Feb-20 19:30N 59°55' E 028°37'0 0.0
2018-Feb-20 19:00N 59°55' E 028°37'0 0.0
2018-Feb-20 18:30N 59°55' E 028°37'3 5.1
2018-Feb-20 18:00N 59°58' E 028°36'510.9
2018-Feb-20 17:30N 60°02' E 028°29'5 9.0
2018-Feb-20 17:00N 60°05' E 028°22'0 0.1
2018-Feb-20 16:30N 60°05' E 028°22'0 0.0
2018-Feb-20 16:00N 60°05' E 028°22'0 0.0
2018-Feb-20 15:30N 60°05' E 028°22'0 0.0
2018-Feb-20 15:00N 60°05' E 028°22'0 0.0
2018-Feb-20 14:30N 60°05' E 028°22'0 0.0
2018-Feb-20 14:00N 60°05' E 028°22'0 0.0
2018-Feb-20 13:30N 60°05' E 028°22'0 0.0
2018-Feb-20 13:00N 60°05' E 028°22'0 0.0
2018-Feb-20 12:30N 60°05' E 028°22'0 0.0
2018-Feb-20 12:00N 60°05' E 028°22'0 0.0
2018-Feb-20 11:30N 60°05' E 028°22'1 2.6
2018-Feb-20 11:00N 60°05' E 028°20'510.0
2018-Feb-20 10:30N 60°08' E 028°11'510.8
2018-Feb-20 10:00N 60°09' E 028°00'611.6
2018-Feb-20 09:30N 60°10' E 027°49'611.3
2018-Feb-20 09:00N 60°08' E 027°38'611.8
2018-Feb-20 08:30N 60°05' E 027°28'4 8.3
2018-Feb-20 08:00N 60°03' E 027°21'5 9.4
2018-Feb-20 07:30N 60°01' E 027°13'3 5.6
2018-Feb-20 06:57N 59°59' E 027°07'510.3
2018-Feb-20 06:28N 59°58' E 026°57'511.3
2018-Feb-20 05:59N 59°59' E 026°47'510.5
2018-Feb-20 05:30N 59°59' E 026°37'510.7
2018-Feb-20 05:00N 59°58' E 026°26'611.5
2018-Feb-20 04:30N 59°56' E 026°15'3311.6
2018-Feb-20 01:42N 59°48' E 025°12'211.9
2018-Feb-20 01:30N 59°48' E 025°07'612.0
2018-Feb-20 01:01N 59°47' E 024°56'611.3
2018-Feb-20 00:30N 59°46' E 024°45'612.0
2018-Feb-20 00:00N 59°45' E 024°33'611.8
2018-Feb-19 23:28N 59°43' E 024°21'711.2
2018-Feb-19 22:51N 59°41' E 024°08'511.3
2018-Feb-19 22:25N 59°40' E 023°59'511.3
2018-Feb-19 21:58N 59°39' E 023°49'511.6
2018-Feb-19 21:30N 59°37' E 023°39'611.5
2018-Feb-19 21:00N 59°36' E 023°28'510.5
2018-Feb-19 20:30N 59°36' E 023°17'611.2
2018-Feb-19 20:00N 59°40' E 023°09'611.9
2018-Feb-19 19:30N 59°45' E 023°03'610.9
2018-Feb-19 18:59N 59°47' E 022°53'41 1.3
2018-Feb-18 10:29N 60°07' E 021°41'511.1
2018-Feb-18 10:00N 60°02' E 021°41'510.9
2018-Feb-18 09:30N 59°57' E 021°40'611.3
2018-Feb-18 09:00N 59°53' E 021°32'611.2
2018-Feb-18 08:30N 59°50' E 021°23'510.7
2018-Feb-18 08:00N 59°45' E 021°21'611.0
2018-Feb-18 07:30N 59°40' E 021°15'25911.3
2018-Feb-17 08:30N 56°04' E 016°46'611.1
2018-Feb-17 08:00N 56°01' E 016°37'611.1
2018-Feb-17 07:30N 55°58' E 016°29'611.1
2018-Feb-17 07:00N 55°56' E 016°20'611.2
2018-Feb-17 06:30N 55°53' E 016°11'611.3
2018-Feb-17 06:00N 55°50' E 016°03'611.3
2018-Feb-17 05:30N 55°48' E 015°54'611.2
2018-Feb-17 05:00N 55°45' E 015°45'611.5
2018-Feb-17 04:30N 55°42' E 015°36'611.6
2018-Feb-17 04:00N 55°39' E 015°27'1511.5
2018-Feb-17 02:41N 55°32' E 015°04'211.3
2018-Feb-17 02:29N 55°31' E 015°00'511.1
2018-Feb-17 02:00N 55°28' E 014°52'611.1
2018-Feb-17 01:29N 55°25' E 014°43'510.9
2018-Feb-17 01:00N 55°21' E 014°37'611.1
2018-Feb-17 00:30N 55°17' E 014°31'611.1
2018-Feb-17 00:00N 55°13' E 014°24'510.9
2018-Feb-16 23:30N 55°09' E 014°18'811.1
2018-Feb-16 22:45N 55°03' E 014°09'7011.5
2018-Feb-16 16:41N 54°34' E 012°18'211.7
2018-Feb-16 16:30N 54°32' E 012°17'611.5
2018-Feb-16 16:00N 54°27' E 012°14'510.5
2018-Feb-16 15:30N 54°24' E 012°06'511.0
2018-Feb-16 15:00N 54°23' E 011°57'2910.7
2018-Feb-16 12:20N 54°02' E 011°24'3 9.3
2018-Feb-16 12:00N 53°60' E 011°20'4 8.2
2018-Feb-16 11:30N 53°57' E 011°25'3 6.3
2018-Feb-16 11:00N 53°54' E 011°28'0 0.0
2018-Feb-16 10:29N 53°54' E 011°28'0 0.0
2018-Feb-16 09:59N 53°54' E 011°28'0 0.0
2018-Feb-16 09:26N 53°54' E 011°28'0 0.0
2018-Feb-16 08:53N 53°54' E 011°28'0 0.0
2018-Feb-16 08:29N 53°54' E 011°28'0 0.0
2018-Feb-16 07:59N 53°54' E 011°28'0 0.0
2018-Feb-16 07:29N 53°54' E 011°28'0 0.0
2018-Feb-16 06:59N 53°54' E 011°28'0 0.0
2018-Feb-16 06:29N 53°54' E 011°28'0 0.0
2018-Feb-16 05:59N 53°54' E 011°28'0 0.0
2018-Feb-16 05:29N 53°54' E 011°28'0 0.0
2018-Feb-16 04:53N 53°54' E 011°28'0 0.0
2018-Feb-16 04:29N 53°54' E 011°28'0 0.0
2018-Feb-16 03:59N 53°54' E 011°28'0 0.0
2018-Feb-16 03:29N 53°54' E 011°28'0 0.0
2018-Feb-16 02:59N 53°54' E 011°28'0 0.0
2018-Feb-16 02:29N 53°54' E 011°28'0 0.0
2018-Feb-16 01:59N 53°54' E 011°28'0 0.0
2018-Feb-16 01:29N 53°54' E 011°28'0 0.0
2018-Feb-16 00:59N 53°54' E 011°28'0 0.0
2018-Feb-16 00:29N 53°54' E 011°28'0 0.0
2018-Feb-15 23:59N 53°54' E 011°28'0 0.0
2018-Feb-15 23:29N 53°54' E 011°28'0 0.0
2018-Feb-15 22:59N 53°54' E 011°28'0 0.0
2018-Feb-15 22:29N 53°54' E 011°28'0 0.0
2018-Feb-15 21:53N 53°54' E 011°28'0 0.0
2018-Feb-15 21:29N 53°54' E 011°28'0 0.0
2018-Feb-15 20:59N 53°54' E 011°28'0 0.0
2018-Feb-15 20:29N 53°54' E 011°28'0 0.0
2018-Feb-15 19:59N 53°54' E 011°28'0 0.0
2018-Feb-15 19:26N 53°54' E 011°28'0 0.0
2018-Feb-15 18:59N 53°54' E 011°28'0 0.0
2018-Feb-15 18:29N 53°54' E 011°28'0 0.0
2018-Feb-15 17:59N 53°54' E 011°28'0 0.0
2018-Feb-15 17:29N 53°54' E 011°28'0 0.0
2018-Feb-15 16:59N 53°54' E 011°28'0 0.0
2018-Feb-15 16:29N 53°54' E 011°28'0 0.0
2018-Feb-15 15:59N 53°54' E 011°28'0 0.0
2018-Feb-15 15:29N 53°54' E 011°28'0 0.0
2018-Feb-15 14:59N 53°54' E 011°28'0 0.0
2018-Feb-15 14:29N 53°54' E 011°28'0 0.0
2018-Feb-15 13:59N 53°54' E 011°28'0 0.0
2018-Feb-15 13:29N 53°54' E 011°28'0 0.0
2018-Feb-15 12:59N 53°54' E 011°28'0 0.0
2018-Feb-15 12:29N 53°54' E 011°28'0 0.0
2018-Feb-15 11:59N 53°54' E 011°28'0 0.0
2018-Feb-15 11:29N 53°54' E 011°28'0 0.0
2018-Feb-15 10:59N 53°54' E 011°28'0 0.0
2018-Feb-15 10:29N 53°54' E 011°28'0 0.0
2018-Feb-15 09:59N 53°54' E 011°28'0 0.0
2018-Feb-15 09:29N 53°54' E 011°28'0 0.0
2018-Feb-15 08:59N 53°54' E 011°28'0 0.0
2018-Feb-15 08:29N 53°54' E 011°28'0 0.0
2018-Feb-15 07:59N 53°54' E 011°28'0 0.0
2018-Feb-15 07:29N 53°54' E 011°28'0 0.0
2018-Feb-15 06:59N 53°54' E 011°28'0 0.0
2018-Feb-15 06:23N 53°54' E 011°28'0 0.0
2018-Feb-15 05:56N 53°54' E 011°28'0 0.0
2018-Feb-15 05:29N 53°54' E 011°28'0 0.0
2018-Feb-15 04:59N 53°54' E 011°28'0 0.0
2018-Feb-15 04:28N 53°54' E 011°28'0 0.0
2018-Feb-15 03:58N 53°54' E 011°28'0 0.0
2018-Feb-15 03:28N 53°54' E 011°28'0 0.0
2018-Feb-15 02:58N 53°54' E 011°28'0 0.0
2018-Feb-15 02:28N 53°54' E 011°28'0 0.0
2018-Feb-15 01:58N 53°54' E 011°28'0 0.0
2018-Feb-15 01:28N 53°54' E 011°28'0 0.0
2018-Feb-15 00:58N 53°54' E 011°28'0 0.0
2018-Feb-15 00:28N 53°54' E 011°28'0 0.0
2018-Feb-14 23:58N 53°54' E 011°28'0 0.0
2018-Feb-14 23:28N 53°54' E 011°28'0 0.0
2018-Feb-14 22:58N 53°54' E 011°28'0 0.0
2018-Feb-14 22:28N 53°54' E 011°28'0 0.0
2018-Feb-14 21:58N 53°54' E 011°28'0 0.0
2018-Feb-14 21:28N 53°54' E 011°28'0 0.0
2018-Feb-14 20:58N 53°54' E 011°28'0 0.0
2018-Feb-14 20:28N 53°54' E 011°28'0 0.0
2018-Feb-14 19:58N 53°54' E 011°28'0 0.5
2018-Feb-14 19:31N 53°54' E 011°27'1 2.3
2018-Feb-14 19:01N 53°55' E 011°26'5 9.7
2018-Feb-14 18:30N 53°59' E 011°20'4 9.0
2018-Feb-14 18:01N 54°02' E 011°25'3 5.2
2018-Feb-14 17:30N 54°05' E 011°27'2 3.5
2018-Feb-14 17:01N 54°06' E 011°25'0 0.1
2018-Feb-14 16:29N 54°06' E 011°25'0 0.0
2018-Feb-14 15:59N 54°06' E 011°25'0 0.0
2018-Feb-14 15:23N 54°06' E 011°25'0 0.0
2018-Feb-14 14:41N 54°06' E 011°25'0 0.0
2018-Feb-14 13:53N 54°06' E 011°25'0 0.0
2018-Feb-14 13:26N 54°06' E 011°25'0 0.0
2018-Feb-14 12:59N 54°06' E 011°25'0 0.0
2018-Feb-14 12:29N 54°06' E 011°25'0 0.1
2018-Feb-14 12:00N 54°06' E 011°25'2 4.0
2018-Feb-14 11:30N 54°07' E 011°28'510.6
2018-Feb-14 11:00N 54°11' E 011°34'510.6
2018-Feb-14 10:30N 54°14' E 011°41'510.4
2018-Feb-14 10:00N 54°18' E 011°48'510.2
2018-Feb-14 09:31N 54°22' E 011°53'5 9.7
2018-Feb-14 09:01N 54°25' E 011°59'5 9.3
2018-Feb-14 08:30N 54°27' E 012°06'4 8.5
2018-Feb-14 08:00N 54°30' E 012°11'510.0
2018-Feb-14 07:31N 54°35' E 012°14'3810.2
2018-Feb-14 03:48N 54°54' E 013°10'2810.6
2018-Feb-14 01:08N 55°04' E 013°57'11 9.6
2018-Feb-14 00:02N 55°11' E 014°10'0 8.4
2018-Feb-14 00:01N 55°11' E 014°10'5 8.7
2018-Feb-13 23:25N 55°14' E 014°17'410.2
2018-Feb-13 22:59N 55°18' E 014°22'16 9.9
2018-Feb-13 21:23N 55°32' E 014°33'510.3
2018-Feb-13 20:56N 55°37' E 014°32'  
Track history (hours):
 
Tides and Currents Weather Stations Pressure Air Temp Water Temp Dewpoint Dewpoint Depression Visibility Wind Speed Wind Dir Waves Ship Positions

Westgard

Last reported at 2018-Feb-21 05:30 UTC. Time now 2018-Feb-21 05:55 UTC.
Position N 59°55' E 028°37'.

Length 89 m; draft 3.8 m.

Type: Ship. MMSI: 246457000.

Date/timePositionNaut miles runAvg speedWind from/ knotsBaromVisibWave heightAir tempDewpointWater temp
2018-Feb-21 05:30N 59°55' E 028°37'0 0.0
2018-Feb-21 05:00N 59°55' E 028°37'0 0.0
2018-Feb-21 04:30N 59°55' E 028°37'0 0.0
2018-Feb-21 04:00N 59°55' E 028°37'0 0.0
2018-Feb-21 03:30N 59°55' E 028°37'0 0.0
2018-Feb-21 03:00N 59°55' E 028°37'0 0.0
2018-Feb-21 02:30N 59°55' E 028°37'0 0.0
2018-Feb-21 02:00N 59°55' E 028°37'0 0.0
2018-Feb-21 01:30N 59°55' E 028°37'0 0.0
2018-Feb-21 01:00N 59°55' E 028°37'0 0.0
2018-Feb-21 00:30N 59°55' E 028°37'0 0.0
2018-Feb-21 00:00N 59°55' E 028°37'0 0.0
2018-Feb-20 23:30N 59°55' E 028°37'0 0.0
2018-Feb-20 23:00N 59°55' E 028°37'0 0.0
2018-Feb-20 22:30N 59°55' E 028°37'0 0.0
2018-Feb-20 22:00N 59°55' E 028°37'0 0.0
2018-Feb-20 21:30N 59°55' E 028°37'0 0.0
2018-Feb-20 21:00N 59°55' E 028°37'0 0.0
2018-Feb-20 20:30N 59°55' E 028°37'0 0.0
2018-Feb-20 20:00N 59°55' E 028°37'0 0.0
2018-Feb-20 19:30N 59°55' E 028°37'0 0.0
2018-Feb-20 19:00N 59°55' E 028°37'0 0.0
2018-Feb-20 18:30N 59°55' E 028°37'3 5.1
2018-Feb-20 18:00N 59°58' E 028°36'510.9
2018-Feb-20 17:30N 60°02' E 028°29'5 9.0
2018-Feb-20 17:00N 60°05' E 028°22'0 0.1
2018-Feb-20 16:30N 60°05' E 028°22'0 0.0
2018-Feb-20 16:00N 60°05' E 028°22'0 0.0
2018-Feb-20 15:30N 60°05' E 028°22'0 0.0
2018-Feb-20 15:00N 60°05' E 028°22'0 0.0
2018-Feb-20 14:30N 60°05' E 028°22'0 0.0
2018-Feb-20 14:00N 60°05' E 028°22'0 0.0
2018-Feb-20 13:30N 60°05' E 028°22'0 0.0
2018-Feb-20 13:00N 60°05' E 028°22'0 0.0
2018-Feb-20 12:30N 60°05' E 028°22'0 0.0
2018-Feb-20 12:00N 60°05' E 028°22'0 0.0
2018-Feb-20 11:30N 60°05' E 028°22'1 2.6
2018-Feb-20 11:00N 60°05' E 028°20'510.0
2018-Feb-20 10:30N 60°08' E 028°11'510.8
2018-Feb-20 10:00N 60°09' E 028°00'611.6
2018-Feb-20 09:30N 60°10' E 027°49'611.3
2018-Feb-20 09:00N 60°08' E 027°38'611.8
2018-Feb-20 08:30N 60°05' E 027°28'4 8.3
2018-Feb-20 08:00N 60°03' E 027°21'5 9.4
2018-Feb-20 07:30N 60°01' E 027°13'3 5.6
2018-Feb-20 06:57N 59°59' E 027°07'510.3
2018-Feb-20 06:28N 59°58' E 026°57'511.3
2018-Feb-20 05:59N 59°59' E 026°47'510.5
2018-Feb-20 05:30N 59°59' E 026°37'510.7
2018-Feb-20 05:00N 59°58' E 026°26'611.5
2018-Feb-20 04:30N 59°56' E 026°15'3311.6
2018-Feb-20 01:42N 59°48' E 025°12'211.9
2018-Feb-20 01:30N 59°48' E 025°07'612.0
2018-Feb-20 01:01N 59°47' E 024°56'611.3
2018-Feb-20 00:30N 59°46' E 024°45'612.0
2018-Feb-20 00:00N 59°45' E 024°33'611.8
2018-Feb-19 23:28N 59°43' E 024°21'711.2
2018-Feb-19 22:51N 59°41' E 024°08'511.3
2018-Feb-19 22:25N 59°40' E 023°59'511.3
2018-Feb-19 21:58N 59°39' E 023°49'511.6
2018-Feb-19 21:30N 59°37' E 023°39'611.5
2018-Feb-19 21:00N 59°36' E 023°28'510.5
2018-Feb-19 20:30N 59°36' E 023°17'611.2
2018-Feb-19 20:00N 59°40' E 023°09'611.9
2018-Feb-19 19:30N 59°45' E 023°03'610.9
2018-Feb-19 18:59N 59°47' E 022°53'41 1.3
2018-Feb-18 10:29N 60°07' E 021°41'511.1
2018-Feb-18 10:00N 60°02' E 021°41'510.9
2018-Feb-18 09:30N 59°57' E 021°40'611.3
2018-Feb-18 09:00N 59°53' E 021°32'611.2
2018-Feb-18 08:30N 59°50' E 021°23'510.7
2018-Feb-18 08:00N 59°45' E 021°21'611.0
2018-Feb-18 07:30N 59°40' E 021°15'25911.3
2018-Feb-17 08:30N 56°04' E 016°46'611.1
2018-Feb-17 08:00N 56°01' E 016°37'611.1
2018-Feb-17 07:30N 55°58' E 016°29'611.1
2018-Feb-17 07:00N 55°56' E 016°20'611.2
2018-Feb-17 06:30N 55°53' E 016°11'611.3
2018-Feb-17 06:00N 55°50' E 016°03'611.3
2018-Feb-17 05:30N 55°48' E 015°54'611.2
2018-Feb-17 05:00N 55°45' E 015°45'611.5
2018-Feb-17 04:30N 55°42' E 015°36'611.6
2018-Feb-17 04:00N 55°39' E 015°27'1511.5
2018-Feb-17 02:41N 55°32' E 015°04'211.3
2018-Feb-17 02:29N 55°31' E 015°00'511.1
2018-Feb-17 02:00N 55°28' E 014°52'611.1
2018-Feb-17 01:29N 55°25' E 014°43'510.9
2018-Feb-17 01:00N 55°21' E 014°37'611.1
2018-Feb-17 00:30N 55°17' E 014°31'611.1
2018-Feb-17 00:00N 55°13' E 014°24'510.9
2018-Feb-16 23:30N 55°09' E 014°18'811.1
2018-Feb-16 22:45N 55°03' E 014°09'7011.5
2018-Feb-16 16:41N 54°34' E 012°18'211.7
2018-Feb-16 16:30N 54°32' E 012°17'611.5
2018-Feb-16 16:00N 54°27' E 012°14'510.5
2018-Feb-16 15:30N 54°24' E 012°06'511.0
2018-Feb-16 15:00N 54°23' E 011°57'2910.7
2018-Feb-16 12:20N 54°02' E 011°24'3 9.3
2018-Feb-16 12:00N 53°60' E 011°20'4 8.2
2018-Feb-16 11:30N 53°57' E 011°25'3 6.3
2018-Feb-16 11:00N 53°54' E 011°28'0 0.0
2018-Feb-16 10:29N 53°54' E 011°28'0 0.0
2018-Feb-16 09:59N 53°54' E 011°28'0 0.0
2018-Feb-16 09:26N 53°54' E 011°28'0 0.0
2018-Feb-16 08:53N 53°54' E 011°28'0 0.0
2018-Feb-16 08:29N 53°54' E 011°28'0 0.0
2018-Feb-16 07:59N 53°54' E 011°28'0 0.0
2018-Feb-16 07:29N 53°54' E 011°28'0 0.0
2018-Feb-16 06:59N 53°54' E 011°28'0 0.0
2018-Feb-16 06:29N 53°54' E 011°28'0 0.0
2018-Feb-16 05:59N 53°54' E 011°28'0 0.0
2018-Feb-16 05:29N 53°54' E 011°28'0 0.0
2018-Feb-16 04:53N 53°54' E 011°28'0 0.0
2018-Feb-16 04:29N 53°54' E 011°28'0 0.0
2018-Feb-16 03:59N 53°54' E 011°28'0 0.0
2018-Feb-16 03:29N 53°54' E 011°28'0 0.0
2018-Feb-16 02:59N 53°54' E 011°28'0 0.0
2018-Feb-16 02:29N 53°54' E 011°28'0 0.0
2018-Feb-16 01:59N 53°54' E 011°28'0 0.0
2018-Feb-16 01:29N 53°54' E 011°28'0 0.0
2018-Feb-16 00:59N 53°54' E 011°28'0 0.0
2018-Feb-16 00:29N 53°54' E 011°28'0 0.0
2018-Feb-15 23:59N 53°54' E 011°28'0 0.0
2018-Feb-15 23:29N 53°54' E 011°28'0 0.0
2018-Feb-15 22:59N 53°54' E 011°28'0 0.0
2018-Feb-15 22:29N 53°54' E 011°28'0 0.0
2018-Feb-15 21:53N 53°54' E 011°28'0 0.0
2018-Feb-15 21:29N 53°54' E 011°28'0 0.0
2018-Feb-15 20:59N 53°54' E 011°28'0 0.0
2018-Feb-15 20:29N 53°54' E 011°28'0 0.0
2018-Feb-15 19:59N 53°54' E 011°28'0 0.0
2018-Feb-15 19:26N 53°54' E 011°28'0 0.0
2018-Feb-15 18:59N 53°54' E 011°28'0 0.0
2018-Feb-15 18:29N 53°54' E 011°28'0 0.0
2018-Feb-15 17:59N 53°54' E 011°28'0 0.0
2018-Feb-15 17:29N 53°54' E 011°28'0 0.0
2018-Feb-15 16:59N 53°54' E 011°28'0 0.0
2018-Feb-15 16:29N 53°54' E 011°28'0 0.0
2018-Feb-15 15:59N 53°54' E 011°28'0 0.0
2018-Feb-15 15:29N 53°54' E 011°28'0 0.0
2018-Feb-15 14:59N 53°54' E 011°28'0 0.0
2018-Feb-15 14:29N 53°54' E 011°28'0 0.0
2018-Feb-15 13:59N 53°54' E 011°28'0 0.0
2018-Feb-15 13:29N 53°54' E 011°28'0 0.0
2018-Feb-15 12:59N 53°54' E 011°28'0 0.0
2018-Feb-15 12:29N 53°54' E 011°28'0 0.0
2018-Feb-15 11:59N 53°54' E 011°28'0 0.0
2018-Feb-15 11:29N 53°54' E 011°28'0 0.0
2018-Feb-15 10:59N 53°54' E 011°28'0 0.0
2018-Feb-15 10:29N 53°54' E 011°28'0 0.0
2018-Feb-15 09:59N 53°54' E 011°28'0 0.0
2018-Feb-15 09:29N 53°54' E 011°28'0 0.0
2018-Feb-15 08:59N 53°54' E 011°28'0 0.0
2018-Feb-15 08:29N 53°54' E 011°28'0 0.0
2018-Feb-15 07:59N 53°54' E 011°28'0 0.0
2018-Feb-15 07:29N 53°54' E 011°28'0 0.0
2018-Feb-15 06:59N 53°54' E 011°28'0 0.0
2018-Feb-15 06:23N 53°54' E 011°28'0 0.0
2018-Feb-15 05:56N 53°54' E 011°28'0 0.0
2018-Feb-15 05:29N 53°54' E 011°28'0 0.0
2018-Feb-15 04:59N 53°54' E 011°28'0 0.0
2018-Feb-15 04:28N 53°54' E 011°28'0 0.0
2018-Feb-15 03:58N 53°54' E 011°28'0 0.0
2018-Feb-15 03:28N 53°54' E 011°28'0 0.0
2018-Feb-15 02:58N 53°54' E 011°28'0 0.0
2018-Feb-15 02:28N 53°54' E 011°28'0 0.0
2018-Feb-15 01:58N 53°54' E 011°28'0 0.0
2018-Feb-15 01:28N 53°54' E 011°28'0 0.0
2018-Feb-15 00:58N 53°54' E 011°28'0 0.0
2018-Feb-15 00:28N 53°54' E 011°28'0 0.0
2018-Feb-14 23:58N 53°54' E 011°28'0 0.0
2018-Feb-14 23:28N 53°54' E 011°28'0 0.0
2018-Feb-14 22:58N 53°54' E 011°28'0 0.0
2018-Feb-14 22:28N 53°54' E 011°28'0 0.0
2018-Feb-14 21:58N 53°54' E 011°28'0 0.0
2018-Feb-14 21:28N 53°54' E 011°28'0 0.0
2018-Feb-14 20:58N 53°54' E 011°28'0 0.0
2018-Feb-14 20:28N 53°54' E 011°28'0 0.0
2018-Feb-14 19:58N 53°54' E 011°28'0 0.5
2018-Feb-14 19:31N 53°54' E 011°27'1 2.3
2018-Feb-14 19:01N 53°55' E 011°26'5 9.7
2018-Feb-14 18:30N 53°59' E 011°20'4 9.0
2018-Feb-14 18:01N 54°02' E 011°25'3 5.2
2018-Feb-14 17:30N 54°05' E 011°27'2 3.5
2018-Feb-14 17:01N 54°06' E 011°25'0 0.1
2018-Feb-14 16:29N 54°06' E 011°25'0 0.0
2018-Feb-14 15:59N 54°06' E 011°25'0 0.0
2018-Feb-14 15:23N 54°06' E 011°25'0 0.0
2018-Feb-14 14:41N 54°06' E 011°25'0 0.0
2018-Feb-14 13:53N 54°06' E 011°25'0 0.0
2018-Feb-14 13:26N 54°06' E 011°25'0 0.0
2018-Feb-14 12:59N 54°06' E 011°25'0 0.0
2018-Feb-14 12:29N 54°06' E 011°25'0 0.1
2018-Feb-14 12:00N 54°06' E 011°25'2 4.0
2018-Feb-14 11:30N 54°07' E 011°28'510.6
2018-Feb-14 11:00N 54°11' E 011°34'510.6
2018-Feb-14 10:30N 54°14' E 011°41'510.4
2018-Feb-14 10:00N 54°18' E 011°48'510.2
2018-Feb-14 09:31N 54°22' E 011°53'5 9.7
2018-Feb-14 09:01N 54°25' E 011°59'5 9.3
2018-Feb-14 08:30N 54°27' E 012°06'4 8.5
2018-Feb-14 08:00N 54°30' E 012°11'510.0
2018-Feb-14 07:31N 54°35' E 012°14'3810.2
2018-Feb-14 03:48N 54°54' E 013°10'2810.6
2018-Feb-14 01:08N 55°04' E 013°57'11 9.6
2018-Feb-14 00:02N 55°11' E 014°10'0 8.4
2018-Feb-14 00:01N 55°11' E 014°10'5 8.7
2018-Feb-13 23:25N 55°14' E 014°17'410.2
2018-Feb-13 22:59N 55°18' E 014°22'16 9.9
2018-Feb-13 21:23N 55°32' E 014°33'510.3
2018-Feb-13 20:56N 55°37' E 014°32'  

Dump ship's entire track history